sensor_id;sensor_type;location;lat;lon;timestamp;pressure;altitude;pressure_sealevel;temperature;humidity
11808;BME280;5961;42.640;23.380;2022-09-24T00:02:15;94386.59;;;8.51;70.64
11808;BME280;5961;42.640;23.380;2022-09-24T00:04:42;94385.34;;;8.48;70.60
11808;BME280;5961;42.640;23.380;2022-09-24T00:07:10;94374.59;;;8.45;70.48
11808;BME280;5961;42.640;23.380;2022-09-24T00:09:37;94378.19;;;8.49;70.28
11808;BME280;5961;42.640;23.380;2022-09-24T00:12:03;94376.63;;;8.48;70.16
11808;BME280;5961;42.640;23.380;2022-09-24T00:14:31;94382.88;;;8.52;70.28
11808;BME280;5961;42.640;23.380;2022-09-24T00:16:57;94377.56;;;8.52;69.87
11808;BME280;5961;42.640;23.380;2022-09-24T00:19:24;94381.91;;;8.48;70.03
11808;BME280;5961;42.640;23.380;2022-09-24T00:21:51;94368.50;;;8.44;70.19
11808;BME280;5961;42.640;23.380;2022-09-24T00:24:19;94382.88;;;8.52;69.89
11808;BME280;5961;42.640;23.380;2022-09-24T00:27:04;94370.38;;;8.44;69.62
11808;BME280;5961;42.640;23.380;2022-09-24T00:29:31;94364.44;;;8.38;69.17
11808;BME280;5961;42.640;23.380;2022-09-24T00:31:58;94380.50;;;8.50;69.09
11808;BME280;5961;42.640;23.380;2022-09-24T00:34:25;94382.69;;;8.57;69.48
11808;BME280;5961;42.640;23.380;2022-09-24T00:36:52;94374.13;;;8.60;69.75
11808;BME280;5961;42.640;23.380;2022-09-24T00:39:20;94377.56;;;8.69;69.19
11808;BME280;5961;42.640;23.380;2022-09-24T00:41:47;94372.09;;;8.65;68.41
11808;BME280;5961;42.640;23.380;2022-09-24T00:47:30;94370.09;;;8.88;68.00
11808;BME280;5961;42.640;23.380;2022-09-24T00:50:04;94373.97;;;8.91;67.58
11808;BME280;5961;42.640;23.380;2022-09-24T00:52:33;94376.03;;;8.85;66.79
11808;BME280;5961;42.640;23.380;2022-09-24T00:55:02;94371.00;;;8.92;67.02
11808;BME280;5961;42.640;23.380;2022-09-24T00:57:30;94331.13;;;8.63;67.53
11808;BME280;5961;42.640;23.380;2022-09-24T00:59:57;94360.41;;;8.92;67.64
11808;BME280;5961;42.640;23.380;2022-09-24T01:02:24;94361.03;;;8.89;67.20
11808;BME280;5961;42.640;23.380;2022-09-24T01:04:51;94361.97;;;9.02;67.44
11808;BME280;5961;42.640;23.380;2022-09-24T01:07:18;94356.38;;;9.03;67.66
11808;BME280;5961;42.640;23.380;2022-09-24T01:09:45;94353.69;;;9.12;67.46
11808;BME280;5961;42.640;23.380;2022-09-24T01:12:19;94351.34;;;9.02;68.40
11808;BME280;5961;42.640;23.380;2022-09-24T01:14:57;94351.69;;;9.00;68.90
11808;BME280;5961;42.640;23.380;2022-09-24T01:17:31;94357.75;;;9.01;69.65
11808;BME280;5961;42.640;23.380;2022-09-24T01:20:27;94362.28;;;9.00;68.78
11808;BME280;5961;42.640;23.380;2022-09-24T01:23:12;94347.63;;;8.94;70.45
11808;BME280;5961;42.640;23.380;2022-09-24T01:25:48;94331.72;;;8.94;70.60
11808;BME280;5961;42.640;23.380;2022-09-24T01:28:33;94351.38;;;8.93;71.94
11808;BME280;5961;42.640;23.380;2022-09-24T01:31:10;94354.63;;;8.99;72.09
11808;BME280;5961;42.640;23.380;2022-09-24T01:33:41;94351.06;;;9.03;71.84
11808;BME280;5961;42.640;23.380;2022-09-24T01:36:12;94352.59;;;9.04;70.55
11808;BME280;5961;42.640;23.380;2022-09-24T01:38:43;94352.94;;;9.03;69.81
11808;BME280;5961;42.640;23.380;2022-09-24T01:41:11;94355.56;;;9.03;71.63
11808;BME280;5961;42.640;23.380;2022-09-24T01:43:40;94356.66;;;8.93;71.56
11808;BME280;5961;42.640;23.380;2022-09-24T01:46:10;94352.31;;;8.97;70.87
11808;BME280;5961;42.640;23.380;2022-09-24T01:48:38;94357.28;;;8.90;71.43
11808;BME280;5961;42.640;23.380;2022-09-24T01:51:09;94356.66;;;8.93;71.09
11808;BME280;5961;42.640;23.380;2022-09-24T01:53:41;94360.72;;;8.99;70.94
11808;BME280;5961;42.640;23.380;2022-09-24T01:56:13;94361.19;;;9.01;70.78
11808;BME280;5961;42.640;23.380;2022-09-24T01:58:46;94366.63;;;9.05;70.27
11808;BME280;5961;42.640;23.380;2022-09-24T02:01:20;94352.16;;;8.85;70.49
11808;BME280;5961;42.640;23.380;2022-09-24T02:03:52;94362.41;;;9.04;70.29
11808;BME280;5961;42.640;23.380;2022-09-24T02:06:24;94360.56;;;8.87;70.86
11808;BME280;5961;42.640;23.380;2022-09-24T02:08:55;94370.41;;;8.78;71.35
11808;BME280;5961;42.640;23.380;2022-09-24T02:11:24;94373.66;;;8.75;71.78
11808;BME280;5961;42.640;23.380;2022-09-24T02:13:56;94372.72;;;8.79;71.90
11808;BME280;5961;42.640;23.380;2022-09-24T02:16:28;94336.09;;;8.56;72.33
11808;BME280;5961;42.640;23.380;2022-09-24T02:18:59;94386.00;;;8.88;71.73
11808;BME280;5961;42.640;23.380;2022-09-24T02:21:28;94384.75;;;8.94;70.74
11808;BME280;5961;42.640;23.380;2022-09-24T02:23:59;94217.53;;;7.84;70.81
11808;BME280;5961;42.640;23.380;2022-09-24T02:26:28;94389.44;;;8.97;70.82
11808;BME280;5961;42.640;23.380;2022-09-24T02:28:55;94387.22;;;8.99;70.78
11808;BME280;5961;42.640;23.380;2022-09-24T02:31:27;94403.91;;;9.08;70.33
11808;BME280;5961;42.640;23.380;2022-09-24T02:33:57;94399.69;;;9.07;68.96
11808;BME280;5961;42.640;23.380;2022-09-24T02:36:42;94371.03;;;8.75;68.45
11808;BME280;5961;42.640;23.380;2022-09-24T02:39:09;94406.56;;;8.91;68.30
11808;BME280;5961;42.640;23.380;2022-09-24T02:41:35;94402.03;;;8.92;68.13
11808;BME280;5961;42.640;23.380;2022-09-24T02:44:02;94402.81;;;8.75;69.71
11808;BME280;5961;42.640;23.380;2022-09-24T02:46:31;94406.41;;;8.79;69.27
11808;BME280;5961;42.640;23.380;2022-09-24T02:48:57;94408.44;;;8.82;69.16
11808;BME280;5961;42.640;23.380;2022-09-24T02:51:24;94411.38;;;8.72;69.61
11808;BME280;5961;42.640;23.380;2022-09-24T02:53:51;94405.91;;;8.60;69.86
11808;BME280;5961;42.640;23.380;2022-09-24T02:56:17;94412.13;;;8.47;70.50
11808;BME280;5961;42.640;23.380;2022-09-24T02:58:44;94400.00;;;8.46;70.59
11808;BME280;5961;42.640;23.380;2022-09-24T03:01:11;94406.53;;;8.48;70.43
11808;BME280;5961;42.640;23.380;2022-09-24T03:03:39;94415.88;;;8.46;70.61
11808;BME280;5961;42.640;23.380;2022-09-24T03:06:06;94393.09;;;8.27;70.62
11808;BME280;5961;42.640;23.380;2022-09-24T03:08:32;94402.75;;;8.41;71.70
11808;BME280;5961;42.640;23.380;2022-09-24T03:11:00;94414.78;;;8.55;72.14
11808;BME280;5961;42.640;23.380;2022-09-24T03:13:26;94406.84;;;8.55;73.45
11808;BME280;5961;42.640;23.380;2022-09-24T03:15:53;94411.22;;;8.60;72.98
11808;BME280;5961;42.640;23.380;2022-09-24T03:18:20;94384.72;;;8.51;72.83
11808;BME280;5961;42.640;23.380;2022-09-24T03:20:55;94397.19;;;8.68;72.72
11808;BME280;5961;42.640;23.380;2022-09-24T03:23:22;94408.91;;;8.67;72.59
11808;BME280;5961;42.640;23.380;2022-09-24T03:25:48;94405.00;;;8.73;73.84
11808;BME280;5961;42.640;23.380;2022-09-24T03:28:15;94404.22;;;8.72;74.75
11808;BME280;5961;42.640;23.380;2022-09-24T03:30:42;94418.88;;;8.87;73.75
11808;BME280;5961;42.640;23.380;2022-09-24T03:33:29;94414.81;;;8.90;72.18
11808;BME280;5961;42.640;23.380;2022-09-24T03:35:58;94419.66;;;8.96;71.09
11808;BME280;5961;42.640;23.380;2022-09-24T03:38:26;94427.16;;;8.94;70.53
11808;BME280;5961;42.640;23.380;2022-09-24T03:40:53;94435.13;;;8.94;70.35
11808;BME280;5961;42.640;23.380;2022-09-24T03:43:20;94429.31;;;9.01;70.21
11808;BME280;5961;42.640;23.380;2022-09-24T03:45:47;94432.91;;;8.96;71.32
11808;BME280;5961;42.640;23.380;2022-09-24T03:48:14;94429.94;;;8.89;72.33
11808;BME280;5961;42.640;23.380;2022-09-24T03:50:41;94427.28;;;8.80;72.22
11808;BME280;5961;42.640;23.380;2022-09-24T03:53:10;94437.44;;;8.70;72.51
11808;BME280;5961;42.640;23.380;2022-09-24T03:55:41;94429.78;;;8.68;72.75
11808;BME280;5961;42.640;23.380;2022-09-24T03:58:08;94427.91;;;8.69;72.99
11808;BME280;5961;42.640;23.380;2022-09-24T04:00:34;94442.50;;;8.49;74.22
11808;BME280;5961;42.640;23.380;2022-09-24T04:03:01;94433.66;;;8.54;73.30
11808;BME280;5961;42.640;23.380;2022-09-24T04:05:28;94433.50;;;8.59;72.22
11808;BME280;5961;42.640;23.380;2022-09-24T04:07:55;94396.38;;;8.33;71.45
11808;BME280;5961;42.640;23.380;2022-09-24T04:10:23;94435.06;;;8.51;70.91
11808;BME280;5961;42.640;23.380;2022-09-24T04:12:50;94435.22;;;8.55;71.28
11808;BME280;5961;42.640;23.380;2022-09-24T04:15:16;94442.38;;;8.54;71.23
11808;BME280;5961;42.640;23.380;2022-09-24T04:17:48;94441.25;;;8.38;70.81
11808;BME280;5961;42.640;23.380;2022-09-24T04:20:15;94431.72;;;8.28;71.05
11808;BME280;5961;42.640;23.380;2022-09-24T04:22:44;94442.47;;;8.32;70.99
11808;BME280;5961;42.640;23.380;2022-09-24T04:25:10;94437.28;;;8.18;71.75
11808;BME280;5961;42.640;23.380;2022-09-24T04:27:38;94451.59;;;8.17;72.16
11808;BME280;5961;42.640;23.380;2022-09-24T04:30:07;94451.94;;;8.24;72.12
11808;BME280;5961;42.640;23.380;2022-09-24T04:32:33;94452.06;;;8.19;72.85
11808;BME280;5961;42.640;23.380;2022-09-24T04:35:00;94434.88;;;8.00;72.30
11808;BME280;5961;42.640;23.380;2022-09-24T04:37:27;94457.84;;;8.21;72.25
11808;BME280;5961;42.640;23.380;2022-09-24T04:39:53;94462.22;;;8.26;72.47
11808;BME280;5961;42.640;23.380;2022-09-24T04:42:20;94465.41;;;8.37;72.91
11808;BME280;5961;42.640;23.380;2022-09-24T04:44:48;94457.91;;;8.39;72.79
11808;BME280;5961;42.640;23.380;2022-09-24T04:47:15;94474.63;;;8.48;71.93
11808;BME280;5961;42.640;23.380;2022-09-24T04:49:42;94458.91;;;8.51;71.65
11808;BME280;5961;42.640;23.380;2022-09-24T04:52:11;94455.31;;;8.56;71.28
11808;BME280;5961;42.640;23.380;2022-09-24T04:54:39;94451.72;;;8.52;71.14
11808;BME280;5961;42.640;23.380;2022-09-24T04:57:06;94425.47;;;8.24;71.88
11808;BME280;5961;42.640;23.380;2022-09-24T04:59:33;94458.09;;;8.42;72.18
11808;BME280;5961;42.640;23.380;2022-09-24T05:02:01;94461.78;;;8.33;72.67
11808;BME280;5961;42.640;23.380;2022-09-24T05:04:27;94462.78;;;8.14;73.77
11808;BME280;5961;42.640;23.380;2022-09-24T05:06:55;94465.59;;;8.09;74.37
11808;BME280;5961;42.640;23.380;2022-09-24T05:09:22;94459.94;;;8.02;74.95
11808;BME280;5961;42.640;23.380;2022-09-24T05:11:48;94465.84;;;7.99;75.49
11808;BME280;5961;42.640;23.380;2022-09-24T05:14:15;94461.03;;;8.01;75.71
11808;BME280;5961;42.640;23.380;2022-09-24T05:16:42;94458.50;;;7.96;75.71
11808;BME280;5961;42.640;23.380;2022-09-24T05:19:10;94458.66;;;7.91;75.78
11808;BME280;5961;42.640;23.380;2022-09-24T05:21:37;94462.72;;;7.97;75.96
11808;BME280;5961;42.640;23.380;2022-09-24T05:24:04;94454.13;;;7.92;76.12
11808;BME280;5961;42.640;23.380;2022-09-24T05:26:30;94461.78;;;7.93;76.37
11808;BME280;5961;42.640;23.380;2022-09-24T05:29:14;94457.44;;;7.97;76.37
11808;BME280;5961;42.640;23.380;2022-09-24T05:31:41;94464.63;;;8.05;76.48
11808;BME280;5961;42.640;23.380;2022-09-24T05:34:09;94450.47;;;8.10;76.59
11808;BME280;5961;42.640;23.380;2022-09-24T05:36:36;94470.59;;;8.19;76.67
11808;BME280;5961;42.640;23.380;2022-09-24T05:39:03;94474.34;;;8.18;76.99
11808;BME280;5961;42.640;23.380;2022-09-24T05:41:29;94437.81;;;7.98;77.38
11808;BME280;5961;42.640;23.380;2022-09-24T05:43:56;94478.59;;;8.28;77.11
11808;BME280;5961;42.640;23.380;2022-09-24T05:46:24;94475.44;;;8.26;77.33
11808;BME280;5961;42.640;23.380;2022-09-24T05:48:50;94486.34;;;8.24;78.12
11808;BME280;5961;42.640;23.380;2022-09-24T05:51:18;94485.47;;;8.38;78.14
11808;BME280;5961;42.640;23.380;2022-09-24T05:53:45;94488.63;;;8.40;78.59
11808;BME280;5961;42.640;23.380;2022-09-24T05:56:12;94481.59;;;8.44;78.54
11808;BME280;5961;42.640;23.380;2022-09-24T05:58:38;94472.44;;;8.50;78.43
11808;BME280;5961;42.640;23.380;2022-09-24T06:01:05;94491.03;;;8.67;78.22
11808;BME280;5961;42.640;23.380;2022-09-24T06:03:32;94485.88;;;8.70;78.27
11808;BME280;5961;42.640;23.380;2022-09-24T06:06:00;94491.97;;;8.79;78.00
11808;BME280;5961;42.640;23.380;2022-09-24T06:08:30;94491.84;;;8.85;78.18
11808;BME280;5961;42.640;23.380;2022-09-24T06:10:57;94491.69;;;8.98;77.95
11808;BME280;5961;42.640;23.380;2022-09-24T06:13:24;94500.44;;;9.07;77.30
11808;BME280;5961;42.640;23.380;2022-09-24T06:15:51;94500.16;;;9.17;77.10
11808;BME280;5961;42.640;23.380;2022-09-24T06:18:17;94492.81;;;9.23;76.74
11808;BME280;5961;42.640;23.380;2022-09-24T06:20:44;94500.94;;;9.35;76.86
11808;BME280;5961;42.640;23.380;2022-09-24T06:23:11;94501.25;;;9.42;76.68
11808;BME280;5961;42.640;23.380;2022-09-24T06:25:40;94502.31;;;9.50;76.53
11808;BME280;5961;42.640;23.380;2022-09-24T06:28:06;94500.59;;;9.54;76.50
11808;BME280;5961;42.640;23.380;2022-09-24T06:30:35;94502.00;;;9.60;76.13
11808;BME280;5961;42.640;23.380;2022-09-24T06:33:04;94495.63;;;9.61;75.66
11808;BME280;5961;42.640;23.380;2022-09-24T06:35:32;94504.81;;;9.72;75.72
11808;BME280;5961;42.640;23.380;2022-09-24T06:37:59;94496.84;;;9.72;76.00
11808;BME280;5961;42.640;23.380;2022-09-24T06:40:26;94508.22;;;9.81;75.50
11808;BME280;5961;42.640;23.380;2022-09-24T06:42:54;94491.38;;;9.68;75.41
11808;BME280;5961;42.640;23.380;2022-09-24T06:45:21;94520.22;;;9.96;75.13
11808;BME280;5961;42.640;23.380;2022-09-24T06:47:53;94512.41;;;9.99;74.50
11808;BME280;5961;42.640;23.380;2022-09-24T06:50:21;94508.47;;;10.05;74.74
11808;BME280;5961;42.640;23.380;2022-09-24T06:52:48;94503.16;;;10.05;74.68
11808;BME280;5961;42.640;23.380;2022-09-24T06:55:16;94515.97;;;10.20;73.76
11808;BME280;5961;42.640;23.380;2022-09-24T06:57:43;94510.03;;;10.23;74.19
11808;BME280;5961;42.640;23.380;2022-09-24T07:00:12;94515.16;;;10.28;73.99
11808;BME280;5961;42.640;23.380;2022-09-24T07:02:40;94501.72;;;10.25;74.11
11808;BME280;5961;42.640;23.380;2022-09-24T07:05:07;94515.91;;;10.37;74.29
11808;BME280;5961;42.640;23.380;2022-09-24T07:07:35;94517.72;;;10.45;74.27
11808;BME280;5961;42.640;23.380;2022-09-24T07:10:04;94468.00;;;10.17;74.02
11808;BME280;5961;42.640;23.380;2022-09-24T07:12:32;94523.03;;;10.54;73.69
11808;BME280;5961;42.640;23.380;2022-09-24T07:14:59;94526.59;;;10.58;73.40
11808;BME280;5961;42.640;23.380;2022-09-24T07:17:28;94525.00;;;10.66;73.12
11808;BME280;5961;42.640;23.380;2022-09-24T07:19:55;94518.06;;;10.73;72.33
11808;BME280;5961;42.640;23.380;2022-09-24T07:22:22;94521.22;;;10.75;71.61
11808;BME280;5961;42.640;23.380;2022-09-24T07:24:48;94515.38;;;10.82;71.31
11808;BME280;5961;42.640;23.380;2022-09-24T07:27:15;94503.19;;;10.81;71.08
11808;BME280;5961;42.640;23.380;2022-09-24T07:29:42;94508.25;;;10.94;70.94
11808;BME280;5961;42.640;23.380;2022-09-24T07:32:08;94506.19;;;11.00;70.39
11808;BME280;5961;42.640;23.380;2022-09-24T07:34:37;94509.34;;;11.02;70.25
11808;BME280;5961;42.640;23.380;2022-09-24T07:37:03;94504.47;;;11.04;69.25
11808;BME280;5961;42.640;23.380;2022-09-24T07:39:30;94511.00;;;11.07;69.07
11808;BME280;5961;42.640;23.380;2022-09-24T07:41:57;94509.13;;;11.07;68.57
11808;BME280;5961;42.640;23.380;2022-09-24T07:44:26;94515.16;;;11.16;68.99
11808;BME280;5961;42.640;23.380;2022-09-24T07:46:53;94507.63;;;11.18;69.79
11808;BME280;5961;42.640;23.380;2022-09-24T07:49:20;94503.22;;;11.22;69.27
11808;BME280;5961;42.640;23.380;2022-09-24T07:51:48;94465.66;;;11.03;68.49
11808;BME280;5961;42.640;23.380;2022-09-24T07:54:15;94507.53;;;11.35;69.17
11808;BME280;5961;42.640;23.380;2022-09-24T07:56:42;94498.31;;;11.33;69.08
11808;BME280;5961;42.640;23.380;2022-09-24T07:59:09;94507.78;;;11.42;68.80
11808;BME280;5961;42.640;23.380;2022-09-24T08:01:36;94495.91;;;11.40;68.52
11808;BME280;5961;42.640;23.380;2022-09-24T08:04:04;94511.13;;;11.51;67.91
11808;BME280;5961;42.640;23.380;2022-09-24T08:06:33;94504.50;;;11.57;67.76
11808;BME280;5961;42.640;23.380;2022-09-24T08:09:02;94508.31;;;11.56;67.66
11808;BME280;5961;42.640;23.380;2022-09-24T08:11:29;94511.53;;;11.62;67.74
11808;BME280;5961;42.640;23.380;2022-09-24T08:13:56;94506.34;;;11.66;67.30
11808;BME280;5961;42.640;23.380;2022-09-24T08:16:23;94508.81;;;11.71;67.15
11808;BME280;5961;42.640;23.380;2022-09-24T08:18:51;94500.53;;;11.72;67.03
11808;BME280;5961;42.640;23.380;2022-09-24T08:21:18;94511.75;;;11.78;66.74
11808;BME280;5961;42.640;23.380;2022-09-24T08:23:45;94510.88;;;11.86;67.28
11808;BME280;5961;42.640;23.380;2022-09-24T08:26:13;94515.69;;;11.92;66.31
11808;BME280;5961;42.640;23.380;2022-09-24T08:28:40;94505.94;;;11.96;64.96
11808;BME280;5961;42.640;23.380;2022-09-24T08:31:09;94507.72;;;12.04;65.06
11808;BME280;5961;42.640;23.380;2022-09-24T08:33:37;94497.19;;;12.08;64.81
11808;BME280;5961;42.640;23.380;2022-09-24T08:36:06;94516.94;;;12.07;65.50
11808;BME280;5961;42.640;23.380;2022-09-24T08:38:33;94502.50;;;12.08;65.54
11808;BME280;5961;42.640;23.380;2022-09-24T08:41:07;94488.50;;;11.99;66.47
11808;BME280;5961;42.640;23.380;2022-09-24T08:43:46;94507.72;;;12.04;65.35
11808;BME280;5961;42.640;23.380;2022-09-24T08:46:19;94497.84;;;12.05;66.21
11808;BME280;5961;42.640;23.380;2022-09-24T08:49:05;94495.50;;;12.03;66.09
11808;BME280;5961;42.640;23.380;2022-09-24T08:51:42;94496.94;;;12.01;65.77
11808;BME280;5961;42.640;23.380;2022-09-24T08:54:12;94467.16;;;11.87;66.91
11808;BME280;5961;42.640;23.380;2022-09-24T08:56:43;94501.31;;;12.18;66.08
11808;BME280;5961;42.640;23.380;2022-09-24T08:59:22;94492.75;;;12.24;64.29
11808;BME280;5961;42.640;23.380;2022-09-24T09:01:59;94385.38;;;11.54;65.44
11808;BME280;5961;42.640;23.380;2022-09-24T09:04:35;94484.75;;;12.24;64.89
11808;BME280;5961;42.640;23.380;2022-09-24T09:07:11;94481.13;;;12.29;65.12
11808;BME280;5961;42.640;23.380;2022-09-24T09:09:43;94477.69;;;12.40;63.14
11808;BME280;5961;42.640;23.380;2022-09-24T09:12:15;94479.81;;;12.47;61.97
11808;BME280;5961;42.640;23.380;2022-09-24T09:14:49;94480.25;;;12.49;61.19
11808;BME280;5961;42.640;23.380;2022-09-24T09:17:28;94485.81;;;12.56;61.08
11808;BME280;5961;42.640;23.380;2022-09-24T09:19:58;94481.38;;;12.60;61.32
11808;BME280;5961;42.640;23.380;2022-09-24T09:22:29;94476.38;;;12.58;60.87
11808;BME280;5961;42.640;23.380;2022-09-24T09:25:00;94480.81;;;12.66;60.78
11808;BME280;5961;42.640;23.380;2022-09-24T09:27:28;94489.81;;;12.74;60.66
11808;BME280;5961;42.640;23.380;2022-09-24T09:29:57;94448.59;;;12.59;61.06
11808;BME280;5961;42.640;23.380;2022-09-24T09:32:34;94447.94;;;12.62;60.46
11808;BME280;5961;42.640;23.380;2022-09-24T09:35:12;94473.25;;;12.93;60.25
11808;BME280;5961;42.640;23.380;2022-09-24T09:37:46;94455.78;;;12.95;59.53
11808;BME280;5961;42.640;23.380;2022-09-24T09:40:26;94470.78;;;13.12;59.57
11808;BME280;5961;42.640;23.380;2022-09-24T09:42:59;94468.75;;;13.21;59.14
11808;BME280;5961;42.640;23.380;2022-09-24T09:45:32;94449.84;;;13.26;60.04
11808;BME280;5961;42.640;23.380;2022-09-24T09:48:02;94458.88;;;13.49;60.37
11808;BME280;5961;42.640;23.380;2022-09-24T09:50:33;94435.81;;;13.57;58.88
11808;BME280;5961;42.640;23.380;2022-09-24T09:53:02;94439.41;;;13.77;55.70
11808;BME280;5961;42.640;23.380;2022-09-24T09:55:32;94444.00;;;13.92;54.17
11808;BME280;5961;42.640;23.380;2022-09-24T09:58:09;94444.28;;;14.02;52.96
11808;BME280;5961;42.640;23.380;2022-09-24T10:00:38;94441.44;;;14.11;53.04
11808;BME280;5961;42.640;23.380;2022-09-24T10:03:05;94424.72;;;14.14;52.34
11808;BME280;5961;42.640;23.380;2022-09-24T10:05:32;94421.88;;;14.22;50.72
11808;BME280;5961;42.640;23.380;2022-09-24T10:07:59;94422.03;;;14.29;50.01
11808;BME280;5961;42.640;23.380;2022-09-24T10:10:27;94419.94;;;14.35;49.99
11808;BME280;5961;42.640;23.380;2022-09-24T10:13:05;94423.91;;;14.41;50.41
11808;BME280;5961;42.640;23.380;2022-09-24T10:15:33;94418.59;;;14.45;50.20
11808;BME280;5961;42.640;23.380;2022-09-24T10:18:02;94432.34;;;14.43;49.60
11808;BME280;5961;42.640;23.380;2022-09-24T10:20:30;94387.06;;;14.35;48.83
11808;BME280;5961;42.640;23.380;2022-09-24T10:23:01;94399.38;;;14.55;48.65
11808;BME280;5961;42.640;23.380;2022-09-24T10:25:30;94416.09;;;14.67;48.71
11808;BME280;5961;42.640;23.380;2022-09-24T10:27:59;94404.00;;;14.73;48.73
11808;BME280;5961;42.640;23.380;2022-09-24T10:30:49;94408.66;;;14.76;49.16
11808;BME280;5961;42.640;23.380;2022-09-24T10:33:18;94405.00;;;14.84;48.61
11808;BME280;5961;42.640;23.380;2022-09-24T10:35:45;94409.53;;;15.00;48.52
11808;BME280;5961;42.640;23.380;2022-09-24T10:38:16;94409.41;;;15.12;48.71
11808;BME280;5961;42.640;23.380;2022-09-24T10:40:45;94407.88;;;15.30;47.78
11808;BME280;5961;42.640;23.380;2022-09-24T10:43:15;94411.25;;;15.46;47.57
11808;BME280;5961;42.640;23.380;2022-09-24T10:46:06;94398.94;;;15.61;46.80
11808;BME280;5961;42.640;23.380;2022-09-24T10:48:41;94407.72;;;15.80;46.56
11808;BME280;5961;42.640;23.380;2022-09-24T10:51:19;94410.28;;;15.96;45.66
11808;BME280;5961;42.640;23.380;2022-09-24T10:53:59;94392.44;;;16.04;44.79
11808;BME280;5961;42.640;23.380;2022-09-24T10:56:32;94401.97;;;16.24;43.61
11808;BME280;5961;42.640;23.380;2022-09-24T11:02:26;94391.69;;;16.52;44.02
11808;BME280;5961;42.640;23.380;2022-09-24T11:05:01;94398.19;;;16.74;44.06
11808;BME280;5961;42.640;23.380;2022-09-24T11:07:42;94394.13;;;16.87;42.45
11808;BME280;5961;42.640;23.380;2022-09-24T11:10:20;94395.94;;;17.06;41.55
11808;BME280;5961;42.640;23.380;2022-09-24T11:12:58;94388.47;;;17.22;41.76
11808;BME280;5961;42.640;23.380;2022-09-24T11:15:40;94386.06;;;17.43;40.52
11808;BME280;5961;42.640;23.380;2022-09-24T11:18:25;94394.28;;;17.57;39.30
11808;BME280;5961;42.640;23.380;2022-09-24T11:21:01;94379.09;;;17.72;38.75
11808;BME280;5961;42.640;23.380;2022-09-24T11:23:52;94385.41;;;17.90;37.81
11808;BME280;5961;42.640;23.380;2022-09-24T11:26:28;94374.44;;;18.05;36.28
11808;BME280;5961;42.640;23.380;2022-09-24T11:29:13;94369.16;;;18.20;36.34
11808;BME280;5961;42.640;23.380;2022-09-24T11:31:52;94366.16;;;18.25;35.60
11808;BME280;5961;42.640;23.380;2022-09-24T11:34:32;94352.75;;;18.32;35.60
11808;BME280;5961;42.640;23.380;2022-09-24T11:37:13;94361.66;;;18.39;34.62
11808;BME280;5961;42.640;23.380;2022-09-24T11:39:59;94356.00;;;18.51;33.34
11808;BME280;5961;42.640;23.380;2022-09-24T11:42:31;94347.53;;;18.53;33.92
11808;BME280;5961;42.640;23.380;2022-09-24T11:45:17;94356.09;;;18.66;33.86
11808;BME280;5961;42.640;23.380;2022-09-24T11:48:02;94354.66;;;18.79;33.33
11808;BME280;5961;42.640;23.380;2022-09-24T11:50:39;94357.06;;;18.94;32.92
11808;BME280;5961;42.640;23.380;2022-09-24T11:53:14;94347.06;;;18.98;32.19
11808;BME280;5961;42.640;23.380;2022-09-24T11:55:47;94303.13;;;18.84;32.21
11808;BME280;5961;42.640;23.380;2022-09-24T11:58:21;94355.66;;;19.29;31.35
11808;BME280;5961;42.640;23.380;2022-09-24T12:00:53;94344.22;;;19.46;31.45
11808;BME280;5961;42.640;23.380;2022-09-24T12:03:23;94330.75;;;19.53;30.71
11808;BME280;5961;42.640;23.380;2022-09-24T12:05:54;94345.44;;;19.69;30.98
11808;BME280;5961;42.640;23.380;2022-09-24T12:08:28;94329.28;;;19.80;30.96
11808;BME280;5961;42.640;23.380;2022-09-24T12:11:01;94334.31;;;19.99;31.08
11808;BME280;5961;42.640;23.380;2022-09-24T12:13:32;94324.31;;;20.03;30.13
11808;BME280;5961;42.640;23.380;2022-09-24T12:16:05;94335.09;;;20.17;29.70
11808;BME280;5961;42.640;23.380;2022-09-24T12:18:37;94339.75;;;20.35;29.96
11808;BME280;5961;42.640;23.380;2022-09-24T12:21:08;94342.06;;;20.50;30.42
11808;BME280;5961;42.640;23.380;2022-09-24T12:23:41;94349.00;;;20.65;28.94
11808;BME280;5961;42.640;23.380;2022-09-24T12:26:10;94328.91;;;20.70;29.82
11808;BME280;5961;42.640;23.380;2022-09-24T12:28:45;94336.59;;;20.82;29.23
11808;BME280;5961;42.640;23.380;2022-09-24T12:31:41;94326.94;;;20.88;28.49
11808;BME280;5961;42.640;23.380;2022-09-24T12:34:38;94327.34;;;20.90;28.27
11808;BME280;5961;42.640;23.380;2022-09-24T12:37:09;94321.16;;;20.83;28.02
11808;BME280;5961;42.640;23.380;2022-09-24T12:39:44;94323.84;;;20.93;27.89
11808;BME280;5961;42.640;23.380;2022-09-24T12:42:15;94334.25;;;21.02;27.76
11808;BME280;5961;42.640;23.380;2022-09-24T12:44:48;94344.28;;;21.05;27.65
11808;BME280;5961;42.640;23.380;2022-09-24T12:47:19;94335.41;;;21.11;27.59
11808;BME280;5961;42.640;23.380;2022-09-24T12:49:49;94345.03;;;21.19;27.24
11808;BME280;5961;42.640;23.380;2022-09-24T12:52:23;94335.34;;;21.25;28.02
11808;BME280;5961;42.640;23.380;2022-09-24T12:54:56;94332.59;;;21.40;27.55
11808;BME280;5961;42.640;23.380;2022-09-24T12:57:26;94331.78;;;21.43;27.67
11808;BME280;5961;42.640;23.380;2022-09-24T12:59:58;94317.84;;;21.55;26.60
11808;BME280;5961;42.640;23.380;2022-09-24T13:02:27;94304.28;;;21.62;26.74
11808;BME280;5961;42.640;23.380;2022-09-24T13:05:25;94310.34;;;21.83;26.30
11808;BME280;5961;42.640;23.380;2022-09-24T13:07:57;94311.47;;;21.93;26.23
11808;BME280;5961;42.640;23.380;2022-09-24T13:10:28;94306.38;;;22.02;25.98
11808;BME280;5961;42.640;23.380;2022-09-24T13:12:56;94277.44;;;21.96;25.90
11808;BME280;5961;42.640;23.380;2022-09-24T13:15:31;94312.91;;;22.08;25.30
11808;BME280;5961;42.640;23.380;2022-09-24T13:20:42;94311.47;;;21.86;25.15
11808;BME280;5961;42.640;23.380;2022-09-24T13:23:14;94306.41;;;21.99;25.66
11808;BME280;5961;42.640;23.380;2022-09-24T13:25:58;94305.94;;;22.07;26.14
11808;BME280;5961;42.640;23.380;2022-09-24T13:28:30;94307.78;;;22.21;26.61
11808;BME280;5961;42.640;23.380;2022-09-24T13:31:01;94314.38;;;22.20;25.04
11808;BME280;5961;42.640;23.380;2022-09-24T13:33:39;94300.06;;;22.16;25.12